Euskara    
Meteorología y climatología de Navarra
Datos de la estación - Meteo Navarra

Estación de Etxarri-Aranatz GN

Altitud 505 m.


Datos desde el 14/01/2021 hasta el 15/01/2021 en horario solar
Los datos son PROVISIONALES

Anterior Página 1 de 2 Siguiente Descargar: Formato para Excel 2000 o superior   Formato csv   Formato para OpenOffice Calc
Fecha Temperatura Humedad relativa Radiación global Insolación Precipitación Vel. viento 10 m Vel. viento 10 m Dir. viento 10 m
°C % W/m² s l/m² m/s km/h °
14/01/2021 0:00 3.9 92 0.0 0 0.0 1.0 3.5 298
14/01/2021 0:10 4.0 91 0.0 0 0.0 1.4 5.1 318
14/01/2021 0:20 4.0 90 0.0 0 0.0 1.3 4.6 321
14/01/2021 0:30 4.0 90 0.0 0 0.0 1.7 6.0 316
14/01/2021 0:40 4.0 90 0.0 0 0.0 1.2 4.4 306
14/01/2021 0:50 3.9 90 0.0 0 0.0 1.1 3.8 296
14/01/2021 1:00 4.0 90 0.0 0 0.0 1.2 4.4 299
14/01/2021 1:10 4.1 89 0.0 0 0.0 1.2 4.2 313
14/01/2021 1:20 4.1 88 0.0 0 0.0 1.2 4.4 303
14/01/2021 1:30 4.3 88 0.0 0 0.0 1.1 4.0 314
14/01/2021 1:40 4.2 88 0.0 0 0.0 0.9 3.2 302
14/01/2021 1:50 4.1 90 0.0 0 0.0 1.0 3.5 292
14/01/2021 2:00 4.2 89 0.0 0 0.0 0.6 2.3 320
14/01/2021 2:10 4.3 89 0.0 0 0.0 0.9 3.2 308
14/01/2021 2:20 4.1 89 0.0 0 0.0 1.5 5.4 281
14/01/2021 2:30 4.3 88 0.0 0 0.0 1.1 4.1 290
14/01/2021 2:40 4.4 88 0.0 0 0.0 0.8 2.8 298
14/01/2021 2:50 4.5 88 0.0 0 0.0 0.8 2.8 296
14/01/2021 3:00 4.3 89 0.0 0 0.0 1.4 4.9 271
14/01/2021 3:10 4.4 89 0.0 0 0.0 0.9 3.1 297
14/01/2021 3:20 4.3 89 0.0 0 0.0 0.5 1.7 277
14/01/2021 3:30 4.2 90 0.0 0 0.0 1.3 4.5 261
14/01/2021 3:40 4.1 90 0.0 0 0.0 2.0 7.1 276
14/01/2021 3:50 4.0 90 0.0 0 0.0 1.0 3.7 279
14/01/2021 4:00 4.1 90 0.0 0 0.0 1.0 3.4 286
14/01/2021 4:10 4.0 91 0.0 0 0.0 1.0 3.5 284
14/01/2021 4:20 3.9 90 0.0 0 0.0 0.9 3.2 297
14/01/2021 4:30 3.9 90 0.0 0 0.0 0.8 2.8 295
14/01/2021 4:40 3.8 90 0.0 0 0.0 1.1 4.0 297
14/01/2021 4:50 3.8 90 0.0 0 0.0 0.8 2.8 296
14/01/2021 5:00 3.7 90 0.0 0 0.0 0.7 2.7 288
14/01/2021 5:10 3.7 90 0.0 0 0.0 0.9 3.3 298
14/01/2021 5:20 3.7 89 0.0 0 0.0 0.9 3.3 310
14/01/2021 5:30 3.6 90 0.0 0 0.0 1.0 3.5 301
14/01/2021 5:40 3.6 89 0.0 0 0.0 0.8 2.9 300
14/01/2021 5:50 3.6 90 0.0 0 0.0 1.1 3.8 297
14/01/2021 6:00 3.4 90 0.0 0 0.0 1.0 3.6 301
14/01/2021 6:10 3.4 90 0.0 0 0.0 0.9 3.2 301
14/01/2021 6:20 3.4 90 0.0 0 0.0 0.9 3.3 301
14/01/2021 6:30 3.4 89 0.0 0 0.0 1.1 4.0 311
14/01/2021 6:40 3.3 90 0.0 0 0.0 0.8 2.8 303
14/01/2021 6:50 3.3 90 0.0 0 0.0 0.8 3.0 304
14/01/2021 7:00 3.4 89 0.0 0 0.0 0.6 2.3 299
14/01/2021 7:10 3.3 90 0.0 0 0.0 0.4 1.5 288
14/01/2021 7:20 3.3 90 0.0 0 0.0 0.5 1.8 278
14/01/2021 7:30 3.3 90 0.0 0 0.0 0.9 3.1 292
14/01/2021 7:40 3.1 90 0.0 0 0.0 0.5 1.7 312
14/01/2021 7:50 3.2 90 0.0 0 0.0 0.4 1.5 302
14/01/2021 8:00 3.3 90 0.0 0 0.0 0.5 1.8 318
14/01/2021 8:10 3.4 89 0.0 0 0.0 0.6 2.2 301
14/01/2021 8:20 3.5 89 0.0 0 0.0 0.8 2.8 283
14/01/2021 8:30 3.7 89 0.0 0 0.0 0.9 3.2 294
14/01/2021 8:40 3.7 88 1.7 0 0.0 1.0 3.5 297
14/01/2021 8:50 3.8 89 17.6 0 0.0 2.0 7.1 255
14/01/2021 9:00 4.1 87 20.9 0 0.0 0.9 3.2 289
14/01/2021 9:10 4.2 87 23.1 0 0.0 2.0 7.2 255
14/01/2021 9:20 4.3 86 28.4 0 0.0 1.7 6.0 260
14/01/2021 9:30 4.4 85 37.7 0 0.0 1.9 6.8 253
14/01/2021 9:40 4.5 86 41.9 0 0.0 1.3 4.6 264
14/01/2021 9:50 4.7 85 44.5 0 0.0 1.7 6.2 255
14/01/2021 10:00 4.9 85 68.3 0 0.0 0.6 2.0 250
14/01/2021 10:10 5.2 85 72.5 0 0.0 1.3 4.5 246
14/01/2021 10:20 5.4 84 76.0 0 0.0 1.7 6.0 245
14/01/2021 10:30 5.5 83 73.6 0 0.0 0.8 2.7 284
14/01/2021 10:40 5.6 84 97.2 0 0.0 0.2 0.9 321
14/01/2021 10:50 5.7 83 109.9 0 0.0 0.5 1.9 290
14/01/2021 11:00 6.2 83 132.9 0 0.0 1.0 3.6 261
14/01/2021 11:10 6.4 81 130.6 0 0.0 1.2 4.3 256
14/01/2021 11:20 6.5 81 129.1 0 0.0 1.6 5.8 261
14/01/2021 11:30 6.5 80 140.3 0 0.0 1.9 6.7 264
14/01/2021 11:40 6.6 80 161.4 0 0.0 2.0 7.2 261
14/01/2021 11:50 6.8 79 157.1 0 0.0 2.0 7.3 270
14/01/2021 12:00 6.9 79 164.9 0 0.0 1.7 6.0 265
14/01/2021 12:10 7.0 78 232.4 246 0.0 2.3 8.4 263
14/01/2021 12:20 7.3 76 346.8 408 0.0 2.1 7.5 259
14/01/2021 12:30 8.0 74 359.4 600 0.0 1.9 6.8 255
14/01/2021 12:40 8.3 72 362.0 600 0.0 1.7 6.0 264
14/01/2021 12:50 8.4 70 286.4 450 0.0 1.6 5.7 283
14/01/2021 13:00 8.0 69 255.9 512 0.0 1.7 6.0 333
14/01/2021 13:10 8.1 70 149.9 0 0.0 1.4 5.1 293
14/01/2021 13:20 7.9 70 107.2 0 0.0 1.9 6.7 322
14/01/2021 13:30 7.9 71 114.2 0 0.0 1.4 5.0 291
14/01/2021 13:40 7.7 71 95.8 0 0.0 1.9 6.7 295
14/01/2021 13:50 7.5 73 73.8 0 0.0 2.1 7.6 291
14/01/2021 14:00 7.3 74 70.9 0 0.0 1.7 6.2 292
14/01/2021 14:10 7.3 74 95.6 0 0.0 1.9 6.7 292
14/01/2021 14:20 7.3 75 123.8 0 0.0 1.5 5.4 275
14/01/2021 14:30 7.5 74 108.3 0 0.0 1.5 5.3 287
14/01/2021 14:40 7.3 76 72.1 0 0.0 1.1 3.8 283
14/01/2021 14:50 7.3 76 79.0 0 0.0 1.7 6.2 264
14/01/2021 15:00 7.2 77 94.0 0 0.0 2.0 7.2 279
14/01/2021 15:10 7.1 80 75.6 0 0.0 2.0 7.1 281
14/01/2021 15:10 7.1 80 75.6 0 0.1 2.0 7.1 281
14/01/2021 15:20 6.7 84 57.3 0 0.0 1.8 6.5 291
14/01/2021 15:20 6.7 84 57.3 0 0.1 1.8 6.5 291
14/01/2021 15:30 6.3 88 48.9 0 0.0 1.2 4.2 285
14/01/2021 15:30 6.3 88 48.9 0 0.1 1.2 4.2 285
14/01/2021 15:40 6.0 90 40.5 0 0.0 1.5 5.5 256
14/01/2021 15:40 6.0 90 40.5 0 0.1 1.5 5.5 256
14/01/2021 15:50 5.6 93 27.1 0 0.0 1.9 6.8 251
14/01/2021 15:50 5.6 93 27.1 0 0.1 1.9 6.8 251
14/01/2021 16:00 5.4 95 14.8 0 0.0 2.1 7.5 239
14/01/2021 16:00 5.4 95 14.8 0 0.1 2.1 7.5 239
14/01/2021 16:10 5.2 95 11.3 0 0.0 1.8 6.4 248
14/01/2021 16:10 5.2 95 11.3 0 0.1 1.8 6.4 248
14/01/2021 16:20 5.2 96 0.0 0 0.0 1.8 6.3 254
14/01/2021 16:20 5.2 96 0.0 0 0.1 1.8 6.3 254
14/01/2021 16:30 5.1 97 0.0 0 0.0 1.6 5.6 256
14/01/2021 16:30 5.1 97 0.0 0 0.1 1.6 5.6 256
14/01/2021 16:40 5.1 97 0.0 0 0.0 1.3 4.6 257
14/01/2021 16:40 5.1 97 0.0 0 0.1 1.3 4.6 257
14/01/2021 16:50 5.0 97 0.0 0 0.0 0.4 1.4 276
14/01/2021 16:50 5.0 97 0.0 0 0.1 0.4 1.4 276
14/01/2021 17:00 5.1 97 0.0 0 0.0 0.6 2.0 253
14/01/2021 17:00 5.1 97 0.0 0 0.1 0.6 2.0 253
14/01/2021 17:10 5.0 97 0.0 0 0.0 0.8 2.7 155
14/01/2021 17:10 5.0 97 0.0 0 0.1 0.8 2.7 155
14/01/2021 17:20 5.1 97 0.0 0 0.0 0.9 3.1 175
14/01/2021 17:20 5.1 97 0.0 0 0.1 0.9 3.1 175
14/01/2021 17:30 5.0 97 0.0 0 0.0 1.3 4.6 200
14/01/2021 17:30 5.0 97 0.0 0 0.1 1.3 4.6 200
14/01/2021 17:40 5.1 98 0.0 0 0.0 1.5 5.3 230
14/01/2021 17:40 5.1 98 0.0 0 0.1 1.5 5.3 230
14/01/2021 17:50 5.1 98 0.0 0 0.0 1.6 5.7 248
14/01/2021 17:50 5.1 98 0.0 0 0.1 1.6 5.7 248
14/01/2021 18:00 5.2 98 0.0 0 0.0 1.1 4.1 261
14/01/2021 18:00 5.2 98 0.0 0 0.1 1.1 4.1 261
14/01/2021 18:10 5.3 98 0.0 0 0.0 2.3 8.2 240
14/01/2021 18:10 5.3 98 0.0 0 0.1 2.3 8.2 240
14/01/2021 18:20 5.3 98 0.0 0 0.0 3.1 11.0 235
14/01/2021 18:20 5.3 98 0.0 0 0.1 3.1 11.0 235
14/01/2021 18:30 5.4 98 0.0 0 0.0 2.8 9.9 243
14/01/2021 18:30 5.4 98 0.0 0 0.1 2.8 9.9 243
14/01/2021 18:40 5.5 98 0.0 0 0.0 3.2 11.4 247
14/01/2021 18:40 5.5 98 0.0 0 0.1 3.2 11.4 247
14/01/2021 18:50 5.5 98 0.0 0 0.0 3.3 11.8 256
14/01/2021 18:50 5.5 98 0.0 0 0.1 3.3 11.8 256
14/01/2021 19:00 5.9 98 0.0 0 0.0 3.5 12.4 256
14/01/2021 19:00 5.9 98 0.0 0 0.1 3.5 12.4 256
14/01/2021 19:10 6.1 98 0.0 0 0.0 3.1 11.1 255
14/01/2021 19:10 6.1 98 0.0 0 0.1 3.1 11.1 255
14/01/2021 19:20 6.1 97 0.0 0 0.0 3.1 11.3 254
14/01/2021 19:20 6.1 97 0.0 0 0.1 3.1 11.3 254
14/01/2021 19:30 6.2 97 0.0 0 0.0 3.6 13.0 249
Anterior Página 1 de 2 Siguiente

NOTA: Tipo de datos según el color:
   - Valores diarios o 10 minutos correctos
   - Valores diarios calculados a partir de un número de datos 10 minutos menor que 144 y mayor que 120, o de un número de datos semihorarios menor que 48 y mayor que 40 (caso de las estaciones de INTIA Y Ministerio)
   - Valores diez minutos estimados


Contacto        Enlaces        Aviso legal